MSC Bremen — A8LK7 — position and weather

sailwx.info

Track history (hours):
 
Tides and Currents Weather Stations Pressure Air Temp Water Temp Dewpoint Dewpoint Depression Visibility Wind Speed Wind Dir Waves Ship Positions

MSC Bremen

Last reported at 2015-Jan-24 02:31 UTC. Time now 2015-Jan-25 14:23 UTC.
Position N 31°56' W 080°42'.

Length 294 m; ; draft 13.7 m.

Type: Ship (hazmat cat A). MMSI: 636091270.

Date/timePositionNaut miles runAvg speedWind from/ knotsBaromVisibWave heightAir tempDewpointWater temp
2015-Jan-24 02:31N 31°56' W 080°42'1010.3
2015-Jan-24 01:33N 32°02' W 080°51'9 8.9
2015-Jan-24 00:33N 32°06' W 081°01'6 5.8
2015-Jan-23 23:33N 32°07' W 081°08'1 1.2
2015-Jan-23 22:32N 32°08' W 081°08'0 0.0
2015-Jan-23 21:32N 32°08' W 081°08'0 0.0
2015-Jan-23 20:31N 32°08' W 081°08'0 0.0
2015-Jan-23 19:31N 32°08' W 081°08'0 0.0
2015-Jan-23 18:32N 32°08' W 081°08'0 0.0
2015-Jan-23 17:32N 32°08' W 081°08'0 0.0
2015-Jan-23 16:32N 32°08' W 081°08'0 0.0
2015-Jan-23 15:31N 32°08' W 081°08'0 0.0
2015-Jan-23 14:31N 32°08' W 081°08'0 0.0
2015-Jan-23 13:31N 32°08' W 081°08'0 0.0
2015-Jan-23 12:32N 32°08' W 081°08'0 0.0
2015-Jan-23 11:31N 32°08' W 081°08'0 0.0
2015-Jan-23 10:32N 32°08' W 081°08'0 0.0
2015-Jan-23 09:32N 32°08' W 081°08'0 0.0
2015-Jan-23 08:32N 32°08' W 081°08'0 0.0
2015-Jan-23 07:32N 32°08' W 081°08'0 0.0
2015-Jan-23 06:31N 32°08' W 081°08'0 0.0
2015-Jan-23 05:31N 32°08' W 081°08'0 0.0
2015-Jan-23 04:31N 32°08' W 081°08'0 0.0
2015-Jan-23 03:31N 32°08' W 081°08'0 0.0
2015-Jan-23 02:31N 32°08' W 081°08'0 0.0
2015-Jan-23 01:31N 32°08' W 081°08'0 0.0
2015-Jan-23 00:31N 32°08' W 081°08'0 0.0
2015-Jan-22 23:32N 32°08' W 081°08'0 0.0
2015-Jan-22 22:32N 32°08' W 081°08'3 2.9
2015-Jan-22 21:33N 32°06' W 081°06'5 5.4
2015-Jan-22 20:33N 32°06' W 080°60'8 8.2
2015-Jan-22 19:33N 32°02' W 080°51'9 9.0
2015-Jan-22 18:33N 31°58' W 080°42'9 8.9
2015-Jan-22 17:33N 31°58' W 080°32'9 9.4
2015-Jan-22 16:33N 31°59' W 080°20'1212.2
2015-Jan-22 15:33N 31°60' W 080°06'1010.3
2015-Jan-22 14:33N 32°02' W 079°55'9 9.1
2015-Jan-22 13:34N 32°06' W 079°45'2115.3
2015-Jan-22 12:12N 32°15' W 079°23'23316.5
2015-Jan-21 22:07N 34°36' W 075°41'20613.3
2015-Jan-21 06:33N 38°01' W 076°13'4719.1
2015-Jan-21 04:06N 38°47' W 076°25'1120.2
2015-Jan-21 03:33N 38°57' W 076°23'1313.3
2015-Jan-21 02:33N 39°11' W 076°26'7 7.2
2015-Jan-21 01:33N 39°15' W 076°33'0 0.3
2015-Jan-21 00:32N 39°15' W 076°33'0 0.0
2015-Jan-20 23:32N 39°15' W 076°33'0 0.0
2015-Jan-20 22:32N 39°15' W 076°33'0 0.0
2015-Jan-20 21:32N 39°15' W 076°33'0 0.0
2015-Jan-20 20:32N 39°15' W 076°33'0 0.0
2015-Jan-20 19:32N 39°15' W 076°33'0 0.0
2015-Jan-20 18:26N 39°15' W 076°33'0 0.0
2015-Jan-20 17:32N 39°15' W 076°33'0 0.0
2015-Jan-20 16:32N 39°15' W 076°33'0 0.0
2015-Jan-20 15:32N 39°15' W 076°33'0 0.0
2015-Jan-20 14:32N 39°15' W 076°33'0 0.0
2015-Jan-20 13:32N 39°15' W 076°33'0 0.0
2015-Jan-20 12:32N 39°15' W 076°33'0 0.0
2015-Jan-20 11:32N 39°15' W 076°33'0 0.0
2015-Jan-20 10:32N 39°15' W 076°33'0 0.0
2015-Jan-20 09:32N 39°15' W 076°33'1 1.3
2015-Jan-20 08:33N 39°14' W 076°33'10 9.9
2015-Jan-20 07:33N 39°07' W 076°24'1616.4
2015-Jan-20 06:34N 38°51' W 076°24'3918.7
2015-Jan-20 04:29N 38°13' W 076°14'2119.6
2015-Jan-20 03:26N 37°53' W 076°09'141 5.1
2015-Jan-18 23:31N 39°28' W 073°55'1414.9
2015-Jan-18 22:33N 39°42' W 073°53'1111.1
2015-Jan-18 21:32N 39°53' W 073°51'1010.1
2015-Jan-18 20:30N 40°04' W 073°50'2110.7
2015-Jan-18 18:32N 40°25' W 073°48'8 8.6
2015-Jan-18 17:33N 40°30' W 073°57'1111.0
2015-Jan-18 16:33N 40°39' W 074°05'4 3.7
2015-Jan-18 15:31N 40°41' W 074°09'0 0.0
2015-Jan-18 14:31N 40°41' W 074°09'0 0.0
2015-Jan-18 13:30N 40°41' W 074°09'0 0.0
2015-Jan-18 12:31N 40°41' W 074°09'0 0.0
2015-Jan-18 11:31N 40°41' W 074°09'0 0.0
2015-Jan-18 10:30N 40°41' W 074°09'0 0.0
2015-Jan-18 09:31N 40°41' W 074°09'0 0.0
2015-Jan-18 08:30N 40°41' W 074°09'0 0.0
2015-Jan-18 07:31N 40°41' W 074°09'0 0.0
2015-Jan-18 06:25N 40°41' W 074°09'0 0.0
2015-Jan-18 05:16N 40°41' W 074°09'0 0.0
2015-Jan-18 04:31N 40°41' W 074°09'0 0.0
2015-Jan-18 03:19N 40°41' W 074°09'0 0.0
2015-Jan-18 02:24N 40°41' W 074°09'0 0.0
2015-Jan-18 01:33N 40°41' W 074°09'0 0.0
2015-Jan-18 00:30N 40°41' W 074°09'0 0.0
2015-Jan-17 23:31N 40°41' W 074°09'0 0.0
2015-Jan-17 22:34N 40°41' W 074°09'0 0.0
2015-Jan-17 21:30N 40°41' W 074°09'0 0.0
2015-Jan-17 20:25N 40°41' W 074°09'0 0.0
2015-Jan-17 19:28N 40°41' W 074°09'0 0.0
2015-Jan-17 18:25N 40°41' W 074°09'0 0.0
2015-Jan-17 17:24N 40°41' W 074°09'0 0.0
2015-Jan-17 16:30N 40°41' W 074°09'0 0.0
2015-Jan-17 15:30N 40°41' W 074°09'0 0.0
2015-Jan-17 14:30N 40°41' W 074°09'0 0.0
2015-Jan-17 13:30N 40°41' W 074°09'0 0.0
2015-Jan-17 12:24N 40°41' W 074°09'0 0.0
2015-Jan-17 11:33N 40°41' W 074°09'3 2.8
2015-Jan-17 10:33N 40°39' W 074°08'6 5.8
2015-Jan-17 09:33N 40°35' W 074°02'1010.5
2015-Jan-17 08:33N 40°28' W 073°51'7 7.0
2015-Jan-17 07:32N 40°22' W 073°47'2310.8
2015-Jan-17 05:25N 39°59' W 073°43'3 2.7
2015-Jan-17 04:08N 39°56' W 073°42'4 4.1
2015-Jan-17 03:03N 39°51' W 073°41'7 8.5
2015-Jan-17 02:12N 39°44' W 073°40'  
Track history (hours):
 
Tides and Currents Weather Stations Pressure Air Temp Water Temp Dewpoint Dewpoint Depression Visibility Wind Speed Wind Dir Waves Ship Positions

MSC Bremen

Last reported at 2015-Jan-24 02:31 UTC. Time now 2015-Jan-25 14:23 UTC.
Position N 31°56' W 080°42'.

Length 294 m; ; draft 13.7 m.

Type: Ship (hazmat cat A). MMSI: 636091270.

Date/timePositionNaut miles runAvg speedWind from/ knotsBaromVisibWave heightAir tempDewpointWater temp
2015-Jan-24 02:31N 31°56' W 080°42'1010.3
2015-Jan-24 01:33N 32°02' W 080°51'9 8.9
2015-Jan-24 00:33N 32°06' W 081°01'6 5.8
2015-Jan-23 23:33N 32°07' W 081°08'1 1.2
2015-Jan-23 22:32N 32°08' W 081°08'0 0.0
2015-Jan-23 21:32N 32°08' W 081°08'0 0.0
2015-Jan-23 20:31N 32°08' W 081°08'0 0.0
2015-Jan-23 19:31N 32°08' W 081°08'0 0.0
2015-Jan-23 18:32N 32°08' W 081°08'0 0.0
2015-Jan-23 17:32N 32°08' W 081°08'0 0.0
2015-Jan-23 16:32N 32°08' W 081°08'0 0.0
2015-Jan-23 15:31N 32°08' W 081°08'0 0.0
2015-Jan-23 14:31N 32°08' W 081°08'0 0.0
2015-Jan-23 13:31N 32°08' W 081°08'0 0.0
2015-Jan-23 12:32N 32°08' W 081°08'0 0.0
2015-Jan-23 11:31N 32°08' W 081°08'0 0.0
2015-Jan-23 10:32N 32°08' W 081°08'0 0.0
2015-Jan-23 09:32N 32°08' W 081°08'0 0.0
2015-Jan-23 08:32N 32°08' W 081°08'0 0.0
2015-Jan-23 07:32N 32°08' W 081°08'0 0.0
2015-Jan-23 06:31N 32°08' W 081°08'0 0.0
2015-Jan-23 05:31N 32°08' W 081°08'0 0.0
2015-Jan-23 04:31N 32°08' W 081°08'0 0.0
2015-Jan-23 03:31N 32°08' W 081°08'0 0.0
2015-Jan-23 02:31N 32°08' W 081°08'0 0.0
2015-Jan-23 01:31N 32°08' W 081°08'0 0.0
2015-Jan-23 00:31N 32°08' W 081°08'0 0.0
2015-Jan-22 23:32N 32°08' W 081°08'0 0.0
2015-Jan-22 22:32N 32°08' W 081°08'3 2.9
2015-Jan-22 21:33N 32°06' W 081°06'5 5.4
2015-Jan-22 20:33N 32°06' W 080°60'8 8.2
2015-Jan-22 19:33N 32°02' W 080°51'9 9.0
2015-Jan-22 18:33N 31°58' W 080°42'9 8.9
2015-Jan-22 17:33N 31°58' W 080°32'9 9.4
2015-Jan-22 16:33N 31°59' W 080°20'1212.2
2015-Jan-22 15:33N 31°60' W 080°06'1010.3
2015-Jan-22 14:33N 32°02' W 079°55'9 9.1
2015-Jan-22 13:34N 32°06' W 079°45'2115.3
2015-Jan-22 12:12N 32°15' W 079°23'23316.5
2015-Jan-21 22:07N 34°36' W 075°41'20613.3
2015-Jan-21 06:33N 38°01' W 076°13'4719.1
2015-Jan-21 04:06N 38°47' W 076°25'1120.2
2015-Jan-21 03:33N 38°57' W 076°23'1313.3
2015-Jan-21 02:33N 39°11' W 076°26'7 7.2
2015-Jan-21 01:33N 39°15' W 076°33'0 0.3
2015-Jan-21 00:32N 39°15' W 076°33'0 0.0
2015-Jan-20 23:32N 39°15' W 076°33'0 0.0
2015-Jan-20 22:32N 39°15' W 076°33'0 0.0
2015-Jan-20 21:32N 39°15' W 076°33'0 0.0
2015-Jan-20 20:32N 39°15' W 076°33'0 0.0
2015-Jan-20 19:32N 39°15' W 076°33'0 0.0
2015-Jan-20 18:26N 39°15' W 076°33'0 0.0
2015-Jan-20 17:32N 39°15' W 076°33'0 0.0
2015-Jan-20 16:32N 39°15' W 076°33'0 0.0
2015-Jan-20 15:32N 39°15' W 076°33'0 0.0
2015-Jan-20 14:32N 39°15' W 076°33'0 0.0
2015-Jan-20 13:32N 39°15' W 076°33'0 0.0
2015-Jan-20 12:32N 39°15' W 076°33'0 0.0
2015-Jan-20 11:32N 39°15' W 076°33'0 0.0
2015-Jan-20 10:32N 39°15' W 076°33'0 0.0
2015-Jan-20 09:32N 39°15' W 076°33'1 1.3
2015-Jan-20 08:33N 39°14' W 076°33'10 9.9
2015-Jan-20 07:33N 39°07' W 076°24'1616.4
2015-Jan-20 06:34N 38°51' W 076°24'3918.7
2015-Jan-20 04:29N 38°13' W 076°14'2119.6
2015-Jan-20 03:26N 37°53' W 076°09'141 5.1
2015-Jan-18 23:31N 39°28' W 073°55'1414.9
2015-Jan-18 22:33N 39°42' W 073°53'1111.1
2015-Jan-18 21:32N 39°53' W 073°51'1010.1
2015-Jan-18 20:30N 40°04' W 073°50'2110.7
2015-Jan-18 18:32N 40°25' W 073°48'8 8.6
2015-Jan-18 17:33N 40°30' W 073°57'1111.0
2015-Jan-18 16:33N 40°39' W 074°05'4 3.7
2015-Jan-18 15:31N 40°41' W 074°09'0 0.0
2015-Jan-18 14:31N 40°41' W 074°09'0 0.0
2015-Jan-18 13:30N 40°41' W 074°09'0 0.0
2015-Jan-18 12:31N 40°41' W 074°09'0 0.0
2015-Jan-18 11:31N 40°41' W 074°09'0 0.0
2015-Jan-18 10:30N 40°41' W 074°09'0 0.0
2015-Jan-18 09:31N 40°41' W 074°09'0 0.0
2015-Jan-18 08:30N 40°41' W 074°09'0 0.0
2015-Jan-18 07:31N 40°41' W 074°09'0 0.0
2015-Jan-18 06:25N 40°41' W 074°09'0 0.0
2015-Jan-18 05:16N 40°41' W 074°09'0 0.0
2015-Jan-18 04:31N 40°41' W 074°09'0 0.0
2015-Jan-18 03:19N 40°41' W 074°09'0 0.0
2015-Jan-18 02:24N 40°41' W 074°09'0 0.0
2015-Jan-18 01:33N 40°41' W 074°09'0 0.0
2015-Jan-18 00:30N 40°41' W 074°09'0 0.0
2015-Jan-17 23:31N 40°41' W 074°09'0 0.0
2015-Jan-17 22:34N 40°41' W 074°09'0 0.0
2015-Jan-17 21:30N 40°41' W 074°09'0 0.0
2015-Jan-17 20:25N 40°41' W 074°09'0 0.0
2015-Jan-17 19:28N 40°41' W 074°09'0 0.0
2015-Jan-17 18:25N 40°41' W 074°09'0 0.0
2015-Jan-17 17:24N 40°41' W 074°09'0 0.0
2015-Jan-17 16:30N 40°41' W 074°09'0 0.0
2015-Jan-17 15:30N 40°41' W 074°09'0 0.0
2015-Jan-17 14:30N 40°41' W 074°09'0 0.0
2015-Jan-17 13:30N 40°41' W 074°09'0 0.0
2015-Jan-17 12:24N 40°41' W 074°09'0 0.0
2015-Jan-17 11:33N 40°41' W 074°09'3 2.8
2015-Jan-17 10:33N 40°39' W 074°08'6 5.8
2015-Jan-17 09:33N 40°35' W 074°02'1010.5
2015-Jan-17 08:33N 40°28' W 073°51'7 7.0
2015-Jan-17 07:32N 40°22' W 073°47'2310.8
2015-Jan-17 05:25N 39°59' W 073°43'3 2.7
2015-Jan-17 04:08N 39°56' W 073°42'4 4.1
2015-Jan-17 03:03N 39°51' W 073°41'7 8.5
2015-Jan-17 02:12N 39°44' W 073°40'  

Dump ship's entire track history